Time;durP1;ratioP1;P1;durP2;ratioP2;P2;SDS_P1;SDS_P2;PMS_P1;PMS_P2;Temp;Humidity;BMP_temperature;BMP_pressure;BME280_temperature;BME280_humidity;BME280_pressure;Samples;Min_cycle;Max_cycle;Signal;HPM_P1;HPM_P2
2021/08/10 00:02:10;;;;;;;13.05;6.53;;;13.80;99.90;;;;;;5057386;28;20041;-65
2021/08/10 00:04:36;;;;;;;12.52;6.40;;;13.70;99.90;;;;;;5065021;28;20091;-64
2021/08/10 00:07:02;;;;;;;12.60;7.00;;;13.80;99.90;;;;;;5056199;28;20481;-65
2021/08/10 00:09:27;;;;;;;9.20;6.47;;;13.80;99.90;;;;;;5064215;28;20174;-66
2021/08/10 00:11:56;;;;;;;10.43;6.93;;;13.80;99.90;;;;;;5056708;28;20065;-66
2021/08/10 00:14:22;;;;;;;13.55;8.30;;;13.90;99.90;;;;;;5063950;28;20041;-65
2021/08/10 00:16:48;;;;;;;14.73;8.10;;;13.90;99.90;;;;;;5056995;28;20049;-65
2021/08/10 00:19:14;;;;;;;11.93;7.13;;;13.90;99.90;;;;;;5063094;28;20063;-65
2021/08/10 00:21:40;;;;;;;12.70;6.95;;;13.80;99.90;;;;;;5058960;28;20045;-66
2021/08/10 00:24:05;;;;;;;9.48;7.03;;;13.90;99.90;;;;;;5054713;28;20037;-66
2021/08/10 00:26:31;;;;;;;10.50;6.90;;;13.90;99.90;;;;;;5060530;28;20068;-65
2021/08/10 00:28:57;;;;;;;13.13;7.28;;;13.90;99.90;;;;;;5051638;28;20069;-66
2021/08/10 00:31:23;;;;;;;11.32;7.47;;;13.90;99.90;;;;;;5062445;28;20044;-66
2021/08/10 00:33:49;;;;;;;12.40;8.18;;;13.90;99.90;;;;;;5057454;28;20628;-65
2021/08/10 00:36:15;;;;;;;9.80;7.40;;;13.90;99.90;;;;;;5062794;28;20493;-66
2021/08/10 00:38:41;;;;;;;16.35;8.43;;;13.90;99.90;;;;;;5064767;28;20043;-66
2021/08/10 00:41:08;;;;;;;11.63;8.25;;;13.90;99.90;;;;;;5058172;28;20109;-65
2021/08/10 00:43:42;;;;;;;13.67;7.73;;;13.90;99.90;;;;;;5051353;28;20048;-66
2021/08/10 00:46:11;;;;;;;13.98;7.75;;;13.90;99.90;;;;;;5059014;28;20415;-65
2021/08/10 00:48:37;;;;;;;16.33;8.50;;;14.00;99.90;;;;;;5064356;28;20048;-64
2021/08/10 00:51:07;;;;;;;16.05;7.63;;;14.00;99.90;;;;;;5057332;28;20059;-65
2021/08/10 00:53:34;;;;;;;13.35;7.30;;;13.90;99.90;;;;;;5050744;28;20517;-64
2021/08/10 00:56:02;;;;;;;16.67;7.97;;;13.90;99.90;;;;;;5062845;28;20047;-64
2021/08/10 00:58:28;;;;;;;18.10;9.05;;;13.90;99.90;;;;;;5050612;28;20037;-65
2021/08/10 01:00:54;;;;;;;15.93;7.32;;;13.90;99.90;;;;;;5057769;28;20385;-65
2021/08/10 01:03:20;;;;;;;14.95;6.95;;;13.90;99.90;;;;;;5065661;28;20050;-65
2021/08/10 01:05:48;;;;;;;12.15;6.43;;;13.80;99.90;;;;;;5063115;28;20051;-65
2021/08/10 01:08:32;;;;;;;14.63;7.43;;;13.80;99.90;;;;;;5057953;28;20049;-66
2021/08/10 01:11:33;;;;;;;14.27;6.82;;;13.80;99.90;;;;;;5056861;28;20048;-65
2021/08/10 01:14:36;;;;;;;11.25;6.35;;;13.80;99.90;;;;;;5041159;28;20053;-65
2021/08/10 01:17:07;;;;;;;11.98;6.30;;;13.80;99.90;;;;;;5035764;28;20061;-65
2021/08/10 01:19:44;;;;;;;15.52;6.97;;;13.70;99.90;;;;;;5041274;28;20056;-64
2021/08/10 01:22:15;;;;;;;13.50;6.95;;;13.80;99.90;;;;;;5040771;28;20076;-65
2021/08/10 01:24:49;;;;;;;13.60;7.07;;;13.80;99.90;;;;;;5040725;28;20080;-65
2021/08/10 01:27:52;;;;;;;9.70;6.75;;;13.80;99.90;;;;;;5041533;28;20076;-64
2021/08/10 01:30:22;;;;;;;16.48;7.40;;;13.80;99.90;;;;;;5041596;28;20058;-65
2021/08/10 01:32:50;;;;;;;17.20;7.90;;;13.70;99.90;;;;;;5041161;28;20056;-65
2021/08/10 01:35:23;;;;;;;20.77;8.25;;;13.80;99.90;;;;;;5039477;28;20048;-64
2021/08/10 01:37:54;;;;;;;13.23;7.53;;;13.80;99.90;;;;;;5040978;28;20065;-65
2021/08/10 01:40:25;;;;;;;10.82;7.30;;;13.80;99.90;;;;;;5041101;28;20045;-65
2021/08/10 01:42:54;;;;;;;12.00;7.75;;;13.80;99.90;;;;;;5041235;28;20085;-65
2021/08/10 01:45:20;;;;;;;14.55;7.55;;;13.80;99.90;;;;;;5029079;28;20076;-65
2021/08/10 01:47:47;;;;;;;16.38;8.50;;;13.80;99.90;;;;;;5041188;28;20088;-64
2021/08/10 01:50:14;;;;;;;17.17;7.50;;;13.80;99.90;;;;;;5056293;28;20087;-65
2021/08/10 01:52:42;;;;;;;13.87;7.47;;;13.80;99.90;;;;;;5061772;28;20424;-64
2021/08/10 01:55:09;;;;;;;21.58;8.60;;;13.80;99.90;;;;;;5055054;28;20115;-65
2021/08/10 01:57:36;;;;;;;13.10;7.60;;;13.80;99.90;;;;;;5058810;28;20041;-65
2021/08/10 02:00:06;;;;;;;14.95;7.88;;;13.80;99.90;;;;;;5063704;28;20044;-65
2021/08/10 02:02:32;;;;;;;20.52;9.32;;;13.80;99.90;;;;;;5059877;28;20405;-64
2021/08/10 02:05:00;;;;;;;13.80;8.67;;;13.80;99.90;;;;;;5057353;28;20049;-64
2021/08/10 02:07:26;;;;;;;11.85;8.15;;;13.90;99.90;;;;;;5049631;28;20560;-65
2021/08/10 02:09:54;;;;;;;17.10;8.77;;;13.90;99.90;;;;;;5056740;28;20049;-65
2021/08/10 02:12:19;;;;;;;;;;;14.00;99.90;;;;;;5054941;28;20063;-65
2021/08/10 02:14:45;;;;;;;15.82;8.30;;;14.00;99.90;;;;;;5057289;28;20364;-66
2021/08/10 02:17:15;;;;;;;14.95;7.97;;;14.00;99.90;;;;;;5049191;28;20069;-65
2021/08/10 02:19:41;;;;;;;19.55;9.57;;;14.00;99.90;;;;;;5056429;28;20067;-66
2021/08/10 02:22:10;;;;;;;15.82;9.55;;;14.00;99.90;;;;;;5049386;28;20053;-64
2021/08/10 02:24:53;;;;;;;21.42;9.75;;;14.00;99.90;;;;;;5049977;28;20523;-65
2021/08/10 02:27:25;;;;;;;14.00;8.38;;;13.90;99.90;;;;;;5062347;28;20049;-65
2021/08/10 02:29:52;;;;;;;18.88;9.07;;;14.00;99.90;;;;;;5054078;28;20048;-65
2021/08/10 02:32:24;;;;;;;18.15;9.45;;;13.90;99.90;;;;;;5066048;28;20049;-65
2021/08/10 02:34:52;;;;;;;16.08;9.35;;;13.90;99.90;;;;;;5053515;28;20049;-64
2021/08/10 02:37:19;;;;;;;12.48;8.68;;;13.90;99.90;;;;;;5065483;28;20049;-66
2021/08/10 02:39:47;;;;;;;17.08;9.45;;;13.90;99.90;;;;;;5058494;28;20060;-64
2021/08/10 02:42:16;;;;;;;23.63;10.18;;;13.90;99.90;;;;;;5065002;28;20045;-65
2021/08/10 02:44:43;;;;;;;15.07;9.00;;;13.90;99.90;;;;;;5058382;28;20053;-65
2021/08/10 02:47:09;;;;;;;13.27;9.27;;;13.90;99.90;;;;;;5065576;28;20045;-65
2021/08/10 02:49:35;;;;;;;17.08;10.02;;;14.00;99.90;;;;;;5057994;28;20041;-65
2021/08/10 02:52:01;;;;;;;14.75;10.23;;;14.00;99.90;;;;;;5063899;28;20152;-65
2021/08/10 02:54:27;;;;;;;15.02;8.23;;;14.00;99.90;;;;;;5058598;28;20109;-65
2021/08/10 02:56:56;;;;;;;17.95;10.05;;;13.90;99.90;;;;;;5064059;28;20489;-64
2021/08/10 02:59:25;;;;;;;19.98;8.90;;;13.90;99.90;;;;;;5065696;28;20041;-65
2021/08/10 03:02:03;;;;;;;17.15;8.93;;;13.90;99.90;;;;;;5063350;28;20071;-65
2021/08/10 03:04:30;;;;;;;14.05;8.50;;;13.90;99.90;;;;;;5065500;28;20041;-64
2021/08/10 03:06:58;;;;;;;19.27;8.50;;;13.80;99.90;;;;;;5062717;28;20056;-64
2021/08/10 03:09:25;;;;;;;13.55;9.05;;;13.90;99.90;;;;;;5060494;28;20060;-65
2021/08/10 03:11:54;;;;;;;19.85;8.40;;;13.80;99.90;;;;;;5058571;28;20072;-65
2021/08/10 03:14:22;;;;;;;13.98;9.18;;;13.80;99.90;;;;;;5065668;28;20044;-65
2021/08/10 03:16:48;;;;;;;21.33;9.52;;;13.80;99.90;;;;;;5062884;28;20041;-65
2021/08/10 03:19:16;;;;;;;16.02;9.00;;;13.80;99.90;;;;;;5062872;28;20046;-65
2021/08/10 03:21:43;;;;;;;;;;;13.80;99.90;;;;;;5056509;28;20045;-65
2021/08/10 03:24:10;;;;;;;22.45;8.40;;;13.80;99.90;;;;;;5062804;28;19960;-65
2021/08/10 03:26:36;;;;;;;15.27;8.38;;;13.80;99.90;;;;;;5055880;28;20045;-65
2021/08/10 03:29:02;;;;;;;14.02;9.45;;;13.80;99.90;;;;;;5063224;28;20041;-65
2021/08/10 03:31:29;;;;;;;16.85;7.60;;;13.80;99.90;;;;;;5066327;28;20105;-65
2021/08/10 03:33:56;;;;;;;21.27;9.00;;;13.80;99.90;;;;;;5062054;28;20052;-65
2021/08/10 03:36:25;;;;;;;11.90;8.38;;;13.70;99.90;;;;;;5053526;28;20045;-65
2021/08/10 03:38:56;;;;;;;16.60;8.40;;;13.80;99.90;;;;;;5064112;28;20104;-65
2021/08/10 03:41:24;;;;;;;17.40;8.13;;;13.70;99.90;;;;;;5053747;28;20045;-65
2021/08/10 03:43:51;;;;;;;12.27;8.18;;;13.70;99.90;;;;;;5061513;28;20045;-65
2021/08/10 03:46:17;;;;;;;15.10;8.27;;;13.80;99.90;;;;;;5053849;28;20066;-65
2021/08/10 03:48:44;;;;;;;15.48;7.50;;;13.80;99.90;;;;;;5060930;28;20372;-65
2021/08/10 03:51:12;;;;;;;14.00;8.70;;;13.80;99.90;;;;;;5052939;28;20413;-65
2021/08/10 03:53:41;;;;;;;22.20;8.60;;;13.80;99.90;;;;;;5060784;28;20072;-64
2021/08/10 03:56:09;;;;;;;13.68;7.57;;;13.90;99.90;;;;;;5053332;28;20052;-66
2021/08/10 03:58:35;;;;;;;16.98;7.53;;;13.90;99.90;;;;;;5060493;28;20048;-65
2021/08/10 04:01:06;;;;;;;14.93;7.78;;;13.90;99.90;;;;;;5063865;28;20438;-65
2021/08/10 04:03:32;;;;;;;15.52;7.50;;;13.90;99.90;;;;;;5056123;28;20040;-65
2021/08/10 04:05:59;;;;;;;16.52;8.13;;;14.00;99.90;;;;;;5062451;28;20056;-65
2021/08/10 04:08:29;;;;;;;18.50;8.23;;;14.00;99.90;;;;;;5056053;28;20045;-65
2021/08/10 04:10:55;;;;;;;12.77;7.68;;;14.00;99.90;;;;;;5063011;28;20123;-65
2021/08/10 04:13:21;;;;;;;17.77;7.78;;;14.00;99.90;;;;;;5060258;28;20075;-65
2021/08/10 04:15:49;;;;;;;16.20;7.63;;;14.10;99.90;;;;;;5060642;28;20041;-65
2021/08/10 04:18:23;;;;;;;11.30;7.20;;;14.10;99.90;;;;;;5056626;28;20049;-64
2021/08/10 04:20:52;;;;;;;15.63;7.68;;;14.20;99.90;;;;;;5061553;28;20041;-65
2021/08/10 04:23:18;;;;;;;17.40;7.80;;;14.20;99.90;;;;;;5066981;28;20107;-65
2021/08/10 04:25:44;;;;;;;12.38;8.82;;;14.10;99.90;;;;;;5064652;28;20052;-64
2021/08/10 04:28:10;;;;;;;16.38;7.90;;;14.20;99.90;;;;;;5062871;28;20041;-65
2021/08/10 04:30:37;;;;;;;11.70;8.45;;;14.20;99.90;;;;;;5054781;28;20057;-64
2021/08/10 04:33:04;;;;;;;20.90;11.25;;;14.20;99.90;;;;;;5062325;28;20040;-65
2021/08/10 04:35:33;;;;;;;24.65;8.55;;;14.10;99.90;;;;;;5059886;28;20041;-65
2021/08/10 04:37:59;;;;;;;16.17;7.88;;;14.20;99.90;;;;;;5060214;28;20080;-65
2021/08/10 04:40:27;;;;;;;19.58;7.88;;;14.20;99.90;;;;;;5061098;28;20109;-65
2021/08/10 04:42:54;;;;;;;15.45;8.48;;;14.20;99.90;;;;;;5061447;28;20045;-65
2021/08/10 04:45:20;;;;;;;16.38;8.73;;;14.20;99.90;;;;;;5062983;28;20049;-65
2021/08/10 04:47:46;;;;;;;16.88;7.95;;;14.10;99.90;;;;;;5061057;28;20060;-65
2021/08/10 04:50:12;;;;;;;14.57;8.35;;;14.20;99.90;;;;;;5060987;28;20067;-65
2021/08/10 04:52:38;;;;;;;14.80;7.90;;;14.20;99.90;;;;;;5055238;28;20132;-64
2021/08/10 04:55:06;;;;;;;15.55;8.07;;;14.20;99.90;;;;;;5059829;28;20053;-65
2021/08/10 04:57:32;;;;;;;17.20;8.10;;;14.30;99.90;;;;;;5055664;28;20064;-65
2021/08/10 04:59:58;;;;;;;11.38;7.75;;;14.30;99.90;;;;;;5060335;28;20092;-65
2021/08/10 05:02:24;;;;;;;18.25;8.45;;;14.30;99.90;;;;;;5062423;28;20045;-65
2021/08/10 05:04:50;;;;;;;13.52;7.72;;;14.30;99.90;;;;;;5062794;28;20048;-66
2021/08/10 05:07:16;;;;;;;16.58;9.18;;;14.40;99.90;;;;;;5056558;28;20055;-65
2021/08/10 05:09:43;;;;;;;16.35;8.43;;;14.40;99.90;;;;;;5062725;28;20052;-65
2021/08/10 05:12:09;;;;;;;18.58;8.50;;;14.40;99.90;;;;;;5062140;28;20041;-65
2021/08/10 05:14:35;;;;;;;17.25;8.75;;;14.50;99.90;;;;;;5054539;28;20044;-64
2021/08/10 05:17:01;;;;;;;18.58;9.02;;;14.50;99.90;;;;;;5053742;28;20041;-65
2021/08/10 05:19:28;;;;;;;19.17;9.88;;;14.50;99.90;;;;;;5061857;28;20381;-64
2021/08/10 05:21:53;;;;;;;13.45;9.85;;;14.50;99.90;;;;;;5062673;28;20045;-65
2021/08/10 05:24:19;;;;;;;16.77;10.48;;;14.50;99.90;;;;;;5062122;28;20041;-64
2021/08/10 05:26:45;;;;;;;22.55;10.13;;;14.50;99.90;;;;;;5056279;28;20048;-63
2021/08/10 05:29:10;;;;;;;16.50;8.38;;;14.50;99.90;;;;;;5059855;28;20548;-63
2021/08/10 05:31:36;;;;;;;22.02;11.25;;;14.40;99.90;;;;;;5061183;28;20079;-64
2021/08/10 05:34:02;;;;;;;21.77;11.15;;;14.50;99.90;;;;;;5061188;28;20050;-65
2021/08/10 05:36:28;;;;;;;19.88;10.25;;;14.40;99.90;;;;;;5059310;28;20049;-66
2021/08/10 05:38:54;;;;;;;16.85;9.57;;;14.50;99.90;;;;;;5055810;28;20045;-65
2021/08/10 05:41:21;;;;;;;16.98;11.32;;;14.40;99.90;;;;;;5061121;28;20101;-65
2021/08/10 05:43:48;;;;;;;20.58;11.75;;;14.40;99.90;;;;;;5055109;28;20056;-65
2021/08/10 05:46:13;;;;;;;18.80;10.98;;;14.30;99.90;;;;;;5058733;28;20104;-65
2021/08/10 05:48:39;;;;;;;28.20;11.88;;;14.40;99.90;;;;;;5058037;28;20103;-65
2021/08/10 05:51:05;;;;;;;21.70;11.55;;;14.40;99.90;;;;;;5055320;28;20052;-65
2021/08/10 05:53:32;;;;;;;17.75;11.57;;;14.40;99.90;;;;;;5058696;28;20040;-65
2021/08/10 05:55:59;;;;;;;20.87;12.30;;;14.40;99.90;;;;;;5060359;28;20048;-65
2021/08/10 05:58:25;;;;;;;23.70;11.13;;;14.50;99.90;;;;;;5060273;28;20098;-65
2021/08/10 06:00:50;;;;;;;21.67;11.18;;;14.50;99.90;;;;;;5058932;28;20064;-65
2021/08/10 06:03:16;;;;;;;13.73;8.88;;;14.60;99.90;;;;;;5049782;28;20105;-65
2021/08/10 06:05:42;;;;;;;19.50;10.98;;;14.70;99.90;;;;;;5064316;28;20119;-65
2021/08/10 06:08:08;;;;;;;17.58;9.70;;;14.70;99.90;;;;;;5064260;28;20049;-65
2021/08/10 06:10:34;;;;;;;16.08;9.93;;;14.80;99.90;;;;;;5067472;28;20045;-65
2021/08/10 06:13:01;;;;;;;15.57;9.18;;;14.80;99.90;;;;;;5056752;28;20476;-64
2021/08/10 06:15:27;;;;;;;16.15;9.75;;;14.90;99.90;;;;;;5059372;28;20059;-65
2021/08/10 06:17:53;;;;;;;15.85;9.68;;;14.90;99.90;;;;;;5062524;28;20068;-64
2021/08/10 06:20:19;;;;;;;13.50;8.75;;;14.90;99.90;;;;;;5067159;28;20103;-65
2021/08/10 06:22:45;;;;;;;16.30;8.88;;;14.90;99.90;;;;;;5066449;28;20060;-66
2021/08/10 06:25:12;;;;;;;19.13;8.35;;;14.90;99.90;;;;;;5066123;28;20049;-65
2021/08/10 06:27:37;;;;;;;14.43;8.80;;;14.80;99.90;;;;;;5067794;28;20052;-66
2021/08/10 06:30:05;;;;;;;12.93;8.35;;;14.80;99.90;;;;;;5058393;28;20046;-65
2021/08/10 06:32:31;;;;;;;16.35;8.65;;;14.70;99.90;;;;;;5065658;28;20045;-65
2021/08/10 06:34:56;;;;;;;18.33;10.32;;;14.70;99.90;;;;;;5065380;28;20096;-65
2021/08/10 06:37:22;;;;;;;17.48;9.70;;;14.70;99.90;;;;;;5064381;28;20060;-65
2021/08/10 06:39:48;;;;;;;13.02;9.60;;;14.80;99.90;;;;;;5070407;28;21742;-66
2021/08/10 06:42:18;;;;;;;13.15;9.68;;;14.80;99.90;;;;;;5063611;28;20057;-66
2021/08/10 06:44:44;;;;;;;16.15;9.75;;;14.90;99.90;;;;;;5061445;28;20040;-65
2021/08/10 06:47:10;;;;;;;15.52;9.75;;;15.00;99.90;;;;;;5062117;28;20045;-66
2021/08/10 06:49:35;;;;;;;18.60;10.25;;;15.20;99.90;;;;;;5064319;28;20517;-67
2021/08/10 06:52:01;;;;;;;15.70;10.02;;;15.40;99.90;;;;;;5061639;28;20163;-69
2021/08/10 06:54:27;;;;;;;17.38;10.02;;;15.60;99.90;;;;;;5064683;28;20055;-63
2021/08/10 06:56:53;;;;;;;14.95;8.90;;;15.80;99.90;;;;;;5065962;28;20051;-63
2021/08/10 06:59:18;;;;;;;13.45;9.30;;;15.80;99.90;;;;;;5060818;28;20041;-63
2021/08/10 07:01:44;;;;;;;14.30;9.20;;;16.00;99.90;;;;;;5065108;28;20048;-63
2021/08/10 07:04:10;;;;;;;14.57;8.13;;;16.10;99.90;;;;;;5060662;28;20072;-63
2021/08/10 07:06:36;;;;;;;11.15;7.45;;;16.20;99.90;;;;;;5064293;28;20087;-63
2021/08/10 07:09:05;;;;;;;10.10;6.53;;;16.20;99.90;;;;;;5061921;28;20047;-63
2021/08/10 07:11:33;;;;;;;13.52;7.00;;;16.20;99.90;;;;;;5060381;28;20037;-63
2021/08/10 07:13:59;;;;;;;7.18;4.65;;;16.30;99.90;;;;;;5061175;28;20325;-63
2021/08/10 07:16:29;;;;;;;9.52;5.47;;;16.30;99.90;;;;;;5073223;28;20329;-64
2021/08/10 07:18:55;;;;;;;7.63;4.45;;;16.30;99.90;;;;;;5058866;28;20481;-63
2021/08/10 07:21:22;;;;;;;7.70;5.20;;;16.20;99.90;;;;;;5065825;28;20048;-63
2021/08/10 07:23:47;;;;;;;9.20;4.87;;;16.10;99.90;;;;;;5064333;28;20056;-63
2021/08/10 07:26:13;;;;;;;9.85;5.15;;;16.00;99.90;;;;;;5060165;28;20037;-64
2021/08/10 07:28:39;;;;;;;7.70;4.57;;;15.90;99.90;;;;;;5058153;28;20050;-64
2021/08/10 07:31:05;;;;;;;5.93;4.22;;;15.90;99.90;;;;;;5069556;28;20064;-64
2021/08/10 07:33:30;;;;;;;7.05;4.80;;;15.90;99.90;;;;;;5066682;28;20041;-64
2021/08/10 07:35:57;;;;;;;8.57;4.25;;;15.90;99.90;;;;;;5070396;28;20041;-64
2021/08/10 07:38:22;;;;;;;4.68;4.13;;;15.90;99.90;;;;;;5065186;28;20072;-64
2021/08/10 07:40:50;;;;;;;7.07;4.53;;;16.00;99.90;;;;;;5063370;28;20049;-63
2021/08/10 07:43:16;;;;;;;;;;;16.00;99.90;;;;;;5066068;28;20051;-63
2021/08/10 07:45:41;;;;;;;7.60;4.20;;;16.10;99.90;;;;;;5063483;28;20007;-63
2021/08/10 07:48:07;;;;;;;9.82;4.45;;;16.10;99.90;;;;;;5074566;28;20052;-64
2021/08/10 07:50:33;;;;;;;10.48;4.72;;;16.20;99.90;;;;;;5068297;28;20055;-64
2021/08/10 07:52:58;;;;;;;6.30;3.97;;;16.20;99.90;;;;;;5068253;28;20059;-64
2021/08/10 07:55:24;;;;;;;7.57;3.30;;;16.30;99.90;;;;;;5064996;28;20047;-64
2021/08/10 07:57:50;;;;;;;6.38;3.08;;;16.20;99.90;;;;;;5072991;28;20041;-64
2021/08/10 08:00:16;;;;;;;4.38;2.95;;;16.20;99.90;;;;;;5061449;28;20357;-64
2021/08/10 08:02:42;;;;;;;5.22;3.13;;;16.30;99.90;;;;;;5052839;28;20045;-64
2021/08/10 08:05:08;;;;;;;4.80;2.83;;;16.60;99.90;;;;;;5056849;28;20040;-64
2021/08/10 08:07:34;;;;;;;5.72;2.45;;;16.80;99.90;;;;;;5061398;28;20061;-64
2021/08/10 08:09:59;;;;;;;4.68;2.78;;;16.90;99.90;;;;;;5060001;28;20071;-64
2021/08/10 08:12:25;;;;;;;8.00;2.92;;;17.10;99.90;;;;;;5060360;28;20048;-64
2021/08/10 08:14:51;;;;;;;5.63;2.42;;;17.10;99.90;;;;;;5063321;28;20327;-64
2021/08/10 08:17:17;;;;;;;5.05;2.58;;;17.30;99.90;;;;;;5057779;28;20579;-64
2021/08/10 08:19:43;;;;;;;4.25;2.17;;;17.60;99.90;;;;;;5060752;28;20155;-65
2021/08/10 08:22:08;;;;;;;3.88;2.25;;;17.70;99.90;;;;;;5063113;28;20044;-64
2021/08/10 08:24:34;;;;;;;5.57;2.53;;;17.30;99.90;;;;;;5059691;28;20055;-64
2021/08/10 08:27:00;;;;;;;5.90;2.58;;;17.00;99.90;;;;;;5058689;28;20136;-64
2021/08/10 08:29:26;;;;;;;3.58;2.45;;;16.80;99.90;;;;;;5060240;28;20052;-64
2021/08/10 08:31:51;;;;;;;4.13;2.70;;;16.80;99.90;;;;;;5062274;28;20079;-69
2021/08/10 08:34:17;;;;;;;6.70;2.55;;;16.80;99.90;;;;;;5061171;28;20045;-71
2021/08/10 08:36:44;;;;;;;10.73;3.72;;;16.90;99.90;;;;;;5062789;28;20087;-70
2021/08/10 08:39:09;;;;;;;9.98;3.92;;;17.00;99.90;;;;;;5059029;28;20041;-70
2021/08/10 08:41:35;;;;;;;5.00;3.63;;;17.20;99.90;;;;;;5062962;28;20072;-69
2021/08/10 08:44:01;;;;;;;8.77;4.95;;;17.60;99.90;;;;;;5061630;28;20091;-64
2021/08/10 08:46:27;;;;;;;8.10;5.28;;;17.80;99.90;;;;;;5059347;28;20124;-64
2021/08/10 08:48:56;;;;;;;12.02;5.47;;;17.90;99.90;;;;;;5050376;28;20045;-64
2021/08/10 08:51:24;;;;;;;7.30;4.93;;;18.00;99.90;;;;;;5056807;28;20143;-64
2021/08/10 08:53:56;;;;;;;9.63;5.07;;;18.00;99.90;;;;;;5065798;28;20412;-64
2021/08/10 08:56:23;;;;;;;8.82;4.70;;;18.30;99.90;;;;;;5063331;28;20045;-62
2021/08/10 08:58:51;;;;;;;8.55;4.93;;;18.40;99.90;;;;;;5063066;28;20107;-61
2021/08/10 09:01:18;;;;;;;9.25;5.43;;;18.70;99.90;;;;;;5061019;28;20044;-61
2021/08/10 09:03:43;;;;;;;6.63;3.70;;;18.60;99.90;;;;;;5058405;28;20045;-62
2021/08/10 09:06:09;;;;;;;6.50;4.50;;;18.60;99.90;;;;;;5064290;28;20074;-64
2021/08/10 09:08:42;;;;;;;6.82;4.05;;;18.60;99.90;;;;;;5058386;28;20083;-64
2021/08/10 09:11:14;;;;;;;7.40;3.75;;;18.90;99.90;;;;;;5062138;28;20041;-65
2021/08/10 09:13:58;;;;;;;6.40;3.50;;;19.00;99.90;;;;;;5063897;28;20045;-65
2021/08/10 09:16:24;;;;;;;10.00;4.07;;;19.30;99.90;;;;;;5066797;28;20061;-69
2021/08/10 09:18:50;;;;;;;6.72;3.90;;;19.10;99.90;;;;;;5064219;28;20416;-66
2021/08/10 09:21:19;;;;;;;6.90;3.92;;;19.10;99.90;;;;;;5062909;28;20049;-62
2021/08/10 09:23:49;;;;;;;10.10;4.47;;;19.10;99.90;;;;;;5061302;28;20037;-69
2021/08/10 09:26:42;;;;;;;8.15;4.13;;;19.00;99.90;;;;;;5062507;28;20064;-63
2021/08/10 09:29:07;;;;;;;10.90;4.55;;;18.90;99.90;;;;;;5061327;28;20037;-78
2021/08/10 09:31:42;;;;;;;8.18;3.78;;;19.00;99.90;;;;;;5065319;28;20032;-75
2021/08/10 09:34:17;;;;;;;7.65;4.18;;;19.10;99.90;;;;;;5059398;28;20045;-74
2021/08/10 09:36:43;;;;;;;7.32;3.80;;;19.10;99.90;;;;;;5061852;28;20052;-68
2021/08/10 09:39:09;;;;;;;10.73;4.13;;;19.10;99.90;;;;;;5064458;28;20045;-72
2021/08/10 09:41:36;;;;;;;12.77;4.78;;;19.10;99.90;;;;;;5061338;28;20041;-79
2021/08/10 09:44:10;;;;;;;7.22;4.10;;;19.00;99.90;;;;;;5073171;28;20040;-67
2021/08/10 09:46:37;;;;;;;9.15;4.63;;;18.90;99.90;;;;;;5071090;28;20055;-65
2021/08/10 09:49:07;;;;;;;8.40;4.72;;;18.80;99.90;;;;;;5064454;28;20041;-76
2021/08/10 09:51:38;;;;;;;8.63;3.85;;;19.00;99.90;;;;;;5062462;28;20104;-66
2021/08/10 09:54:07;;;;;;;7.50;4.00;;;19.10;99.90;;;;;;5057207;28;20099;-69
2021/08/10 09:56:55;;;;;;;9.70;4.35;;;19.10;99.90;;;;;;5067044;28;20041;-66
2021/08/10 09:59:27;;;;;;;8.32;3.58;;;19.60;99.90;;;;;;5055687;28;20051;-69
2021/08/10 10:01:56;;;;;;;9.77;4.25;;;19.90;99.90;;;;;;5061564;28;20401;-70
2021/08/10 10:04:24;;;;;;;9.90;3.38;;;20.10;99.90;;;;;;5058700;28;20067;-64
2021/08/10 10:06:56;;;;;;;8.07;3.70;;;20.00;99.90;;;;;;5052510;28;20053;-71
2021/08/10 10:09:27;;;;;;;7.07;3.25;;;20.00;99.90;;;;;;5059603;28;20101;-66
2021/08/10 10:11:55;;;;;;;8.27;3.30;;;20.20;99.90;;;;;;5064443;28;20083;-65
2021/08/10 10:14:23;;;;;;;6.13;3.25;;;20.20;99.90;;;;;;5062518;28;20059;-66
2021/08/10 10:16:52;;;;;;;7.65;3.40;;;20.20;99.90;;;;;;5063587;28;20044;-69
2021/08/10 10:19:20;;;;;;;6.55;3.40;;;20.40;99.90;;;;;;5066592;28;20091;-68
2021/08/10 10:21:48;;;;;;;8.82;3.10;;;20.30;99.90;;;;;;5065899;28;20499;-76
2021/08/10 10:24:15;;;;;;;7.72;3.90;;;20.60;99.90;;;;;;5062945;28;20045;-63
2021/08/10 10:26:44;;;;;;;7.85;3.08;;;20.60;99.90;;;;;;5061890;28;20071;-63
2021/08/10 10:29:12;;;;;;;8.85;3.92;;;20.40;99.90;;;;;;5061979;28;20072;-63
2021/08/10 10:31:38;;;;;;;9.10;4.05;;;19.90;99.90;;;;;;5064134;28;20071;-66
2021/08/10 10:34:05;;;;;;;7.40;3.95;;;19.50;99.90;;;;;;5061085;28;20045;-63
2021/08/10 10:36:33;;;;;;;8.45;4.30;;;19.10;99.90;;;;;;5060624;28;20042;-63
2021/08/10 10:39:00;;;;;;;7.00;3.95;;;18.60;99.90;;;;;;5056900;28;20041;-63
2021/08/10 10:41:31;;;;;;;11.77;5.57;;;17.90;99.90;;;;;;5066751;28;20064;-62
2021/08/10 10:43:57;;;;;;;9.98;5.55;;;17.10;99.90;;;;;;5052940;28;20042;-62
2021/08/10 10:46:37;;;;;;;13.60;6.18;;;16.60;99.90;;;;;;5065646;28;20060;-62
2021/08/10 10:49:08;;;;;;;20.98;7.85;;;16.40;99.90;;;;;;5061754;28;20045;-62
2021/08/10 10:51:35;;;;;;;12.32;5.85;;;16.30;99.90;;;;;;5051190;28;20056;-64
2021/08/10 10:54:23;;;;;;;23.23;6.25;;;15.90;99.90;;;;;;5057164;28;20124;-65
2021/08/10 10:56:51;;;;;;;18.63;8.57;;;15.50;99.90;;;;;;5061848;28;20041;-65
2021/08/10 10:59:21;;;;;;;25.63;8.40;;;15.60;99.90;;;;;;5075124;28;20041;-64
2021/08/10 11:01:47;;;;;;;11.18;4.28;;;15.60;99.90;;;;;;5063002;28;20048;-63
2021/08/10 11:04:13;;;;;;;10.43;6.32;;;15.50;99.90;;;;;;5064037;28;20056;-63
2021/08/10 11:06:49;;;;;;;13.63;8.15;;;15.60;99.90;;;;;;5064967;28;20057;-63
2021/08/10 11:09:48;;;;;;;15.98;9.38;;;15.80;99.90;;;;;;5065422;28;20136;-62
2021/08/10 11:12:33;;;;;;;17.13;10.27;;;16.00;99.90;;;;;;5042994;28;20057;-63
2021/08/10 11:14:59;;;;;;;16.77;9.85;;;16.10;99.90;;;;;;5042706;28;20533;-63
2021/08/10 11:17:25;;;;;;;21.58;11.93;;;16.30;99.90;;;;;;5044100;28;20108;-63
2021/08/10 11:19:53;;;;;;;15.43;9.45;;;16.40;99.90;;;;;;5048746;28;20452;-62
2021/08/10 11:22:18;;;;;;;15.80;10.00;;;16.40;99.90;;;;;;5044689;28;20136;-63
2021/08/10 11:24:53;;;;;;;13.60;8.20;;;16.50;99.90;;;;;;5048235;28;20167;-62
2021/08/10 11:27:40;;;;;;;10.65;5.35;;;16.50;99.90;;;;;;5043936;28;20057;-63
2021/08/10 11:30:09;;;;;;;15.15;6.90;;;16.40;99.90;;;;;;5035763;28;20038;-62
2021/08/10 11:32:46;;;;;;;13.45;8.13;;;16.30;99.90;;;;;;5041075;28;20545;-62
2021/08/10 11:35:39;;;;;;;15.63;8.52;;;16.40;99.90;;;;;;5039687;28;20049;-62
2021/08/10 11:38:14;;;;;;;14.05;7.05;;;16.40;99.90;;;;;;5045761;28;20044;-62
2021/08/10 11:40:59;;;;;;;15.75;7.15;;;16.40;99.90;;;;;;5044637;28;20513;-62
2021/08/10 11:43:48;;;;;;;9.25;7.07;;;16.20;99.90;;;;;;5042876;28;20053;-61
2021/08/10 11:46:26;;;;;;;14.57;7.45;;;16.20;99.90;;;;;;5044150;28;20077;-62
2021/08/10 11:48:53;;;;;;;11.80;7.80;;;16.40;99.90;;;;;;5060761;28;20072;-62
2021/08/10 11:51:21;;;;;;;13.68;7.60;;;16.60;99.90;;;;;;5069691;28;20082;-62
2021/08/10 11:53:51;;;;;;;13.88;7.63;;;16.80;99.90;;;;;;5053626;28;20402;-62
2021/08/10 11:56:32;;;;;;;12.35;7.30;;;17.10;99.90;;;;;;5066636;28;20044;-63
2021/08/10 11:59:00;;;;;;;12.30;5.95;;;17.10;99.90;;;;;;5065767;28;20100;-62
2021/08/10 12:01:27;;;;;;;9.65;5.13;;;17.00;99.90;;;;;;5065771;28;20041;-63
2021/08/10 12:03:53;;;;;;;9.35;5.18;;;17.30;99.90;;;;;;5063437;28;20053;-63
2021/08/10 12:06:27;;;;;;;11.18;5.60;;;17.00;99.90;;;;;;5062405;28;20112;-62
2021/08/10 12:08:55;;;;;;;9.50;5.80;;;17.00;99.90;;;;;;5060897;28;20056;-62
2021/08/10 12:11:24;;;;;;;12.57;4.90;;;17.00;99.90;;;;;;5065035;28;20044;-63
2021/08/10 12:13:50;;;;;;;9.60;6.15;;;17.00;99.90;;;;;;5065167;28;20048;-63
2021/08/10 12:16:16;;;;;;;14.18;7.05;;;17.10;99.90;;;;;;5064361;28;20044;-63
2021/08/10 12:18:50;;;;;;;11.02;5.70;;;17.20;99.90;;;;;;5063797;28;20049;-64
2021/08/10 12:21:17;;;;;;;10.65;5.05;;;17.30;99.90;;;;;;5059008;28;20041;-64
2021/08/10 12:23:45;;;;;;;11.38;4.03;;;17.50;99.90;;;;;;5067286;28;20040;-63
2021/08/10 12:26:16;;;;;;;3.80;2.30;;;17.30;99.90;;;;;;5064727;28;20037;-64
2021/08/10 12:29:04;;;;;;;5.28;2.95;;;16.90;99.90;;;;;;5069267;28;20044;-63
2021/08/10 12:31:31;;;;;;;5.70;3.05;;;17.10;99.90;;;;;;5064408;28;20033;-63
2021/08/10 12:34:00;;;;;;;5.03;3.00;;;17.10;99.90;;;;;;5068177;28;20048;-64
2021/08/10 12:36:26;;;;;;;5.85;3.53;;;17.60;99.90;;;;;;5063945;28;20323;-64
2021/08/10 12:38:53;;;;;;;5.95;3.17;;;17.70;99.90;;;;;;5061587;28;20138;-64
2021/08/10 12:41:24;;;;;;;4.55;3.38;;;17.80;99.90;;;;;;5065007;28;20072;-64
2021/08/10 12:43:51;;;;;;;6.32;3.72;;;17.70;99.90;;;;;;5074292;28;20048;-64
2021/08/10 12:46:35;;;;;;;6.20;3.70;;;18.00;99.90;;;;;;5065234;28;20544;-67
2021/08/10 12:49:03;;;;;;;6.07;3.45;;;18.10;99.90;;;;;;5059463;28;20037;-66